This is the latest recevied weather packets stored in our database for station/object SR8WXB-1. If no packets are shown the sender has not sent any weather packets the latest 1 day(s).
| Time | Temp. | Humidity | Pressure | Rain* | Wind** | Luminosity | Snow |
|---|---|---|---|---|---|---|---|
| 1777957178 | 12.78° C | 100% | 942.3 hPa | - | 4.92 m/s, 242° | - | - |
| 1777956936 | 12.78° C | 100% | 942.3 hPa | - | 4.47 m/s, 242° | - | - |
| 1777956696 | 12.78° C | 100% | 942.3 hPa | - | 4.92 m/s, 242° | - | - |
| 1777956456 | 12.22° C | 100% | 942.3 hPa | - | 4.92 m/s, 243° | - | - |
| 1777956215 | 12.22° C | 100% | 942.3 hPa | - | 4.47 m/s, 239° | - | - |
| 1777955975 | 12.22° C | 100% | 942.3 hPa | - | 4.92 m/s, 241° | - | - |
| 1777955735 | 12.22° C | - | - | - | 4.47 m/s, 239° | - | - |
| 1777955732 | 12.22° C | 100% | 942.3 hPa | - | 4.47 m/s, 239° | - | - |
| 1777955492 | 12.22° C | 100% | 942.3 hPa | - | 4.92 m/s, 239° | - | - |
| 1777955252 | 12.22° C | 100% | 942.3 hPa | - | 4.47 m/s, 240° | - | - |
| 1777955009 | 11.67° C | 100% | 942.3 hPa | - | 5.36 m/s, 241° | - | - |
| 1777954771 | 11.67° C | 100% | 942.3 hPa | - | 5.36 m/s, 239° | - | - |
| 1777954769 | 11.67° C | 100% | 942.3 hPa | - | 5.36 m/s, 239° | - | - |
| 1777954526 | 11.67° C | 100% | 942.3 hPa | - | 4.92 m/s, 238° | - | - |
| 1777954286 | 11.67° C | 100% | 942.2 hPa | - | 4.47 m/s, 236° | - | - |
| 1777954046 | 11.67° C | 100% | 942.2 hPa | - | 4.02 m/s, 237° | - | - |
| 1777953807 | 12.22° C | 100% | 942.2 hPa | - | 3.58 m/s, 237° | - | - |
| 1777953567 | 12.22° C | 100% | 942.3 hPa | - | 3.58 m/s, 236° | - | - |
| 1777953324 | 12.22° C | 100% | 942.3 hPa | - | 3.13 m/s, 235° | - | - |
| 1777953084 | 11.67° C | 100% | 942.3 hPa | - | 2.68 m/s, 236° | - | - |
| 1777952844 | 12.22° C | 100% | 942.3 hPa | - | 2.68 m/s, 235° | - | - |
| 1777952604 | 12.22° C | 100% | 942.3 hPa | - | 3.58 m/s, 238° | - | - |
| 1777952364 | 12.22° C | 100% | 942.3 hPa | - | 3.13 m/s, 236° | - | - |
| 1777952121 | 12.22° C | 100% | 942.3 hPa | - | 3.13 m/s, 237° | - | - |
| 1777951881 | 12.22° C | 100% | 942.3 hPa | - | 3.13 m/s, 237° | - | - |
* Rain since midnight (hover to see other rain measurements)
** Current wind speed in m/s (hover to see current wind gust speed)